Details for SAS (Scandinavian Airlines) at ESSA




Go Back


Latest METAR
Local Time

ESSA 221020Z 24021KT 9999 BKN042 13/06 Q0993 NOSIG
22/09/2018, 12:47:19

Description
Results
SAS (Scandinavian Airlines) Logo
Number of Pilots based at ESSA
1 Pilots Based here
Number of SAS (Scandinavian Airlines) Flights Departed from ESSA
18 Flights Departed
Number of SAS (Scandinavian Airlines) Flights Arrived at ESSA
13 Flights Arrived
Number of SAS (Scandinavian Airlines) Schedules Departing from ESSA
460 Schedules
Number of SAS (Scandinavian Airlines) Schedules Arriving at ESSA
457 Schedules
Number of SAS (Scandinavian Airlines) Schedules Departing from ESSA availible today
107 Schedules Today
Number of SAS (Scandinavian Airlines) Schedules Arriving at ESSA availible today
111 Schedules Today
Average Landing Rate at ESSA
-230 fpm
SAS (Scandinavian Airlines) Average Landing Rate at ESSA
-178 fpm
Total Fuel Purchased at ESSA by SAS (Scandinavian Airlines)
59,738.11 kgs / 131,698.64 lbs

Pilots Based at ESSA


Pilot ID
Pilot Name
Pilot Rank
No. of Flights
No. of Flying Hours
David Kurth
8
13.02
Content